createdAt,value
2018-08-09T00:00:16.020Z,100304
2018-08-09T00:02:45.462Z,100303
2018-08-09T00:05:14.303Z,100302
2018-08-09T00:07:43.152Z,100297
2018-08-09T00:10:11.994Z,100301
2018-08-09T00:12:40.840Z,100303
2018-08-09T00:15:09.685Z,100309
2018-08-09T00:17:38.518Z,100296
2018-08-09T00:20:07.363Z,100293
2018-08-09T00:22:36.192Z,100286
2018-08-09T00:25:05.036Z,100286
2018-08-09T00:27:34.622Z,100300
2018-08-09T00:30:03.463Z,100301
2018-08-09T00:32:32.304Z,100292
2018-08-09T00:35:01.178Z,100276
2018-08-09T00:37:30.005Z,100278
2018-08-09T00:39:58.851Z,100282
2018-08-09T00:42:27.686Z,100285
2018-08-09T00:44:56.532Z,100275
2018-08-09T00:47:25.372Z,100268
2018-08-09T00:49:54.214Z,100269
2018-08-09T00:52:23.067Z,100281
2018-08-09T00:54:51.909Z,100277
2018-08-09T00:57:20.743Z,100271
2018-08-09T00:59:49.589Z,100280
2018-08-09T01:02:18.438Z,100277
2018-08-09T01:04:47.283Z,100276
2018-08-09T01:07:16.865Z,100271
2018-08-09T01:09:45.723Z,100269
2018-08-09T01:12:14.560Z,100274
2018-08-09T01:14:44.153Z,100276
2018-08-09T01:17:12.991Z,100274
2018-08-09T01:19:41.827Z,100276
2018-08-09T01:22:10.663Z,100266
2018-08-09T01:24:39.522Z,100271
2018-08-09T01:27:08.374Z,100267
2018-08-09T01:29:37.216Z,100273
2018-08-09T01:32:06.807Z,100275
2018-08-09T01:34:35.666Z,100266
2018-08-09T01:37:04.509Z,100275
2018-08-09T01:39:33.355Z,100273
2018-08-09T01:42:02.208Z,100270
2018-08-09T01:44:31.044Z,100262
2018-08-09T01:46:59.899Z,100266
2018-08-09T01:49:28.746Z,100258
2018-08-09T01:51:57.574Z,100262
2018-08-09T01:54:26.415Z,100265
2018-08-09T01:56:55.263Z,100252
2018-08-09T01:59:24.103Z,100250
2018-08-09T02:01:52.956Z,100244
2018-08-09T02:04:21.802Z,100242
2018-08-09T02:06:50.660Z,100238
2018-08-09T02:09:19.512Z,100238
2018-08-09T02:11:48.353Z,100238
2018-08-09T02:14:17.199Z,100230
2018-08-09T02:16:46.046Z,100223
2018-08-09T02:19:14.891Z,100212
2018-08-09T02:21:43.763Z,100202
2018-08-09T02:24:12.559Z,100204
2018-08-09T02:26:41.418Z,100202
2018-08-09T02:29:10.257Z,100204
2018-08-09T02:31:39.098Z,100190
2018-08-09T02:34:08.693Z,100192
2018-08-09T02:36:37.534Z,100194
2018-08-09T02:39:06.382Z,100185
2018-08-09T02:41:35.205Z,100192
2018-08-09T02:44:04.786Z,100199
2018-08-09T02:46:33.651Z,100196
2018-08-09T02:49:02.470Z,100199
2018-08-09T02:51:31.304Z,100195
2018-08-09T02:54:00.146Z,100202
2018-08-09T02:56:28.990Z,100207
2018-08-09T02:58:57.842Z,100208
2018-08-09T03:01:26.710Z,100205
2018-08-09T03:03:55.581Z,100205
2018-08-09T03:06:24.406Z,100200
2018-08-09T03:08:53.257Z,100202
2018-08-09T03:11:22.100Z,100197
2018-08-09T03:13:51.688Z,100201
2018-08-09T03:16:20.531Z,100198
2018-08-09T03:18:49.376Z,100199
2018-08-09T03:21:18.225Z,100195
2018-08-09T03:23:47.074Z,100192
2018-08-09T03:26:15.923Z,100200
2018-08-09T03:28:44.773Z,100192
2018-08-09T03:31:13.611Z,100198
2018-08-09T03:33:42.456Z,100198
2018-08-09T03:36:11.306Z,100203
2018-08-09T03:38:40.149Z,100200
2018-08-09T03:41:09.003Z,100197
2018-08-09T03:43:37.848Z,100193
2018-08-09T03:46:06.699Z,100193
2018-08-09T03:48:35.543Z,100192
2018-08-09T03:51:04.391Z,100187
2018-08-09T03:53:33.251Z,100183
2018-08-09T03:56:02.210Z,100179
2018-08-09T03:58:30.972Z,100183
2018-08-09T04:00:59.833Z,100177
2018-08-09T04:03:28.670Z,100174
2018-08-09T04:05:58.262Z,100177
2018-08-09T04:08:27.102Z,100188
2018-08-09T04:10:55.940Z,100177
2018-08-09T04:13:24.781Z,100193
2018-08-09T04:15:53.630Z,100175
2018-08-09T04:18:22.484Z,100181
2018-08-09T04:20:51.483Z,100190
2018-08-09T04:23:21.058Z,100190
2018-08-09T04:25:50.668Z,100193
2018-08-09T04:28:19.494Z,100191
2018-08-09T04:30:48.330Z,100190
2018-08-09T04:33:17.168Z,100194
2018-08-09T04:35:46.011Z,100198
2018-08-09T04:38:14.856Z,100201
2018-08-09T04:40:43.694Z,100202
2018-08-09T04:43:12.537Z,100212
2018-08-09T04:45:41.390Z,100216
2018-08-09T04:48:10.231Z,100220
2018-08-09T04:50:39.822Z,100227
2018-08-09T04:53:08.660Z,100234
2018-08-09T04:55:37.606Z,100229
2018-08-09T04:58:06.383Z,100228
2018-08-09T05:00:35.199Z,100226
2018-08-09T05:03:04.777Z,100226
2018-08-09T05:05:34.204Z,100226
2018-08-09T05:08:03.067Z,100227
2018-08-09T05:10:31.914Z,100219
2018-08-09T05:13:00.757Z,100224
2018-08-09T05:15:29.608Z,100218
2018-08-09T05:17:58.451Z,100217
2018-08-09T05:20:28.031Z,100207
2018-08-09T05:22:56.867Z,100210
2018-08-09T05:25:25.711Z,100213
2018-08-09T05:27:54.543Z,100212
2018-08-09T05:30:23.392Z,100203
2018-08-09T05:32:52.238Z,100205
2018-08-09T05:35:21.103Z,100204
2018-08-09T05:37:50.686Z,100200
2018-08-09T05:40:19.536Z,100197
2018-08-09T05:42:48.376Z,100203
2018-08-09T05:45:17.240Z,100196
2018-08-09T05:47:46.059Z,100193
2018-08-09T05:50:14.915Z,100196
2018-08-09T05:52:43.776Z,100196
2018-08-09T05:55:13.333Z,100188
2018-08-09T05:57:42.171Z,100195
2018-08-09T06:00:11.023Z,100195
2018-08-09T06:02:39.884Z,100190
2018-08-09T06:05:08.725Z,100178
2018-08-09T06:07:37.570Z,100173
2018-08-09T06:10:06.420Z,100176
2018-08-09T06:12:35.258Z,100163
2018-08-09T06:15:04.103Z,100172
2018-08-09T06:17:32.958Z,100166
2018-08-09T06:20:01.796Z,100163
2018-08-09T06:22:30.633Z,100166
2018-08-09T06:25:00.213Z,100146
2018-08-09T06:27:29.056Z,100145
2018-08-09T06:29:57.909Z,100140
2018-08-09T06:32:26.752Z,100120
2018-08-09T06:34:55.613Z,100115
2018-08-09T06:37:24.456Z,100114
2018-08-09T06:39:53.304Z,100125
2018-08-09T06:42:22.139Z,100118
2018-08-09T06:44:50.974Z,100112
2018-08-09T06:47:19.812Z,100122
2018-08-09T06:49:48.659Z,100115
2018-08-09T06:52:17.511Z,100107
2018-08-09T06:54:46.377Z,100098
2018-08-09T06:57:15.210Z,100094
2018-08-09T06:59:44.057Z,100088
2018-08-09T07:02:12.896Z,100086
2018-08-09T07:04:41.734Z,100088
2018-08-09T07:07:10.579Z,100090
2018-08-09T07:09:39.464Z,100091
2018-08-09T07:12:08.320Z,100103
2018-08-09T07:14:37.155Z,100114
2018-08-09T07:17:05.999Z,100111
2018-08-09T07:19:34.849Z,100098
2018-08-09T07:22:03.692Z,100086
2018-08-09T07:24:32.537Z,100083
2018-08-09T07:27:01.391Z,100078
2018-08-09T07:29:30.239Z,100077
2018-08-09T07:31:59.815Z,100080
2018-08-09T07:34:28.664Z,100076
2018-08-09T07:36:57.514Z,100080
2018-08-09T07:39:26.398Z,100077
2018-08-09T07:41:55.222Z,100081
2018-08-09T07:44:24.070Z,100080
2018-08-09T07:46:52.909Z,100086
2018-08-09T07:49:21.761Z,100086
2018-08-09T07:51:50.602Z,100089
2018-08-09T07:54:20.222Z,100085
2018-08-09T07:56:49.656Z,100083
2018-08-09T07:59:18.618Z,100087
2018-08-09T08:01:47.334Z,100083
2018-08-09T08:04:16.175Z,100080
2018-08-09T08:06:45.028Z,100083
2018-08-09T08:09:13.870Z,100084
2018-08-09T08:11:42.709Z,100090
2018-08-09T08:14:11.555Z,100077
2018-08-09T08:16:40.408Z,100090
2018-08-09T08:19:09.262Z,100085
2018-08-09T08:21:38.102Z,100085
2018-08-09T08:24:06.951Z,100078
2018-08-09T08:26:36.540Z,100065
2018-08-09T08:29:05.388Z,100068
2018-08-09T08:31:34.226Z,100059
2018-08-09T08:34:03.816Z,100059
2018-08-09T08:36:32.672Z,100064
2018-08-09T08:39:01.523Z,100067
2018-08-09T08:41:30.384Z,100081
2018-08-09T08:43:59.228Z,100078
2018-08-09T08:46:28.083Z,100081
2018-08-09T08:48:57.681Z,100066
2018-08-09T08:51:26.519Z,100070
2018-08-09T08:53:55.368Z,100064
2018-08-09T08:56:24.210Z,100063
2018-08-09T08:58:53.058Z,100054
2018-08-09T09:01:21.890Z,100054
2018-08-09T09:03:50.752Z,100061
2018-08-09T09:06:19.592Z,100058
2018-08-09T09:08:48.437Z,100053
2018-08-09T09:11:17.296Z,100046
2018-08-09T09:13:46.887Z,100049
2018-08-09T09:16:15.718Z,100056
2018-08-09T09:18:44.580Z,100048
2018-08-09T09:21:13.438Z,100050
2018-08-09T09:23:42.272Z,100045
2018-08-09T09:26:11.155Z,100048
2018-08-09T09:28:39.968Z,100044
2018-08-09T09:31:08.820Z,100041
2018-08-09T09:33:38.403Z,100041
2018-08-09T09:36:07.243Z,100041
2018-08-09T09:38:36.093Z,100041
2018-08-09T09:41:04.940Z,100043
2018-08-09T09:43:33.787Z,100041
2018-08-09T09:46:03.379Z,100033
2018-08-09T09:48:32.806Z,100028
2018-08-09T09:51:01.656Z,100021
2018-08-09T09:53:30.492Z,100023
2018-08-09T09:55:59.362Z,100009
2018-08-09T09:58:28.178Z,100008
2018-08-09T10:00:57.024Z,100003
2018-08-09T10:03:25.916Z,99998
2018-08-09T10:05:54.720Z,99984
2018-08-09T10:08:24.302Z,99979
2018-08-09T10:10:53.131Z,99978
2018-08-09T10:13:21.967Z,99970
2018-08-09T10:15:50.810Z,99960
2018-08-09T10:18:19.642Z,99950
2018-08-09T10:20:48.481Z,99953
2018-08-09T10:23:17.317Z,99956
2018-08-09T10:25:46.163Z,99948
2018-08-09T10:28:15.018Z,99943
2018-08-09T10:30:43.848Z,99936
2018-08-09T10:33:12.689Z,99935
2018-08-09T10:35:41.532Z,99948
2018-08-09T10:38:10.385Z,99948
2018-08-09T10:40:39.226Z,99947
2018-08-09T10:43:08.064Z,99952
2018-08-09T10:45:36.903Z,99943
2018-08-09T10:48:05.745Z,99934
2018-08-09T10:50:34.575Z,99932
2018-08-09T10:53:03.417Z,99932
2018-08-09T10:55:32.297Z,99922
2018-08-09T10:58:01.092Z,99914
2018-08-09T11:00:29.930Z,99915
2018-08-09T11:02:58.797Z,99906
2018-08-09T11:05:27.636Z,99895
2018-08-09T11:07:56.470Z,99898
2018-08-09T11:10:25.316Z,99897
2018-08-09T11:12:54.155Z,99887
2018-08-09T11:15:22.996Z,99880
2018-08-09T11:17:51.829Z,99874
2018-08-09T11:20:20.669Z,99879
2018-08-09T11:22:50.251Z,99864
2018-08-09T11:25:19.672Z,99862
2018-08-09T11:27:48.517Z,99866
2018-08-09T11:30:17.355Z,99855
2018-08-09T11:32:46.182Z,99851
2018-08-09T11:35:15.090Z,99840
2018-08-09T11:37:43.915Z,99844
2018-08-09T11:40:12.759Z,99841
2018-08-09T11:42:41.609Z,99840
2018-08-09T11:45:10.456Z,99838
2018-08-09T11:47:39.292Z,99835
2018-08-09T11:50:08.134Z,99832
2018-08-09T11:52:36.966Z,99833
2018-08-09T11:55:05.805Z,99832
2018-08-09T11:57:34.659Z,99830
2018-08-09T12:00:03.498Z,99835
2018-08-09T12:02:32.384Z,99833
2018-08-09T12:05:01.224Z,99827
2018-08-09T12:07:30.052Z,99821
2018-08-09T12:09:58.890Z,99817
2018-08-09T12:12:27.733Z,99819
2018-08-09T12:14:56.602Z,99822
2018-08-09T12:17:25.431Z,99819
2018-08-09T12:19:54.268Z,99818
2018-08-09T12:22:23.106Z,99812
2018-08-09T12:24:51.951Z,99801
2018-08-09T12:27:20.787Z,99805
2018-08-09T12:29:50.478Z,99794
2018-08-09T12:32:19.307Z,99807
2018-08-09T12:34:48.117Z,99818
2018-08-09T12:37:16.957Z,99822
2018-08-09T12:39:45.787Z,99834
2018-08-09T12:42:14.617Z,99958
2018-08-09T12:44:43.463Z,100011
2018-08-09T12:47:12.312Z,99970
2018-08-09T12:49:41.182Z,99993
2018-08-09T12:52:10.023Z,99991
2018-08-09T12:54:38.858Z,99962
2018-08-09T12:57:07.744Z,99937
2018-08-09T12:59:36.579Z,99944
2018-08-09T13:02:06.013Z,99965
2018-08-09T13:06:42.800Z,100020
2018-08-09T13:09:12.388Z,100050
2018-08-09T13:11:41.239Z,100056
2018-08-09T13:14:10.100Z,100051
2018-08-09T13:16:38.939Z,100074
2018-08-09T13:19:07.833Z,100066
2018-08-09T13:21:36.712Z,100076
2018-08-09T13:24:05.525Z,100092
2018-08-09T13:26:34.372Z,100108
2018-08-09T13:29:03.240Z,100102
2018-08-09T13:31:32.838Z,100111
2018-08-09T13:34:01.679Z,100120
2018-08-09T13:36:30.516Z,100124
2018-08-09T13:39:00.105Z,100131
2018-08-09T13:41:28.974Z,100139
2018-08-09T13:43:57.795Z,100166
2018-08-09T13:46:27.377Z,100205
2018-08-09T13:48:56.956Z,100204
2018-08-09T13:51:25.802Z,100203
2018-08-09T13:53:54.638Z,100210
2018-08-09T13:56:23.473Z,100220
2018-08-09T13:58:52.342Z,100215
2018-08-09T14:01:21.180Z,100215
2018-08-09T14:03:50.042Z,100205
2018-08-09T14:06:19.627Z,100193
2018-08-09T14:08:48.472Z,100191
2018-08-09T14:11:17.308Z,100188
2018-08-09T14:13:46.172Z,100179
2018-08-09T14:16:15.047Z,100172
2018-08-09T14:18:43.916Z,100177
2018-08-09T14:21:12.763Z,100171
2018-08-09T14:23:41.610Z,100181
2018-08-09T14:26:10.457Z,100175
2018-08-09T14:28:39.311Z,100167
2018-08-09T14:31:08.150Z,100174
2018-08-09T14:33:36.996Z,100183
2018-08-09T14:36:05.833Z,100179
2018-08-09T14:38:34.672Z,100181
2018-08-09T14:41:03.514Z,100182
2018-08-09T14:43:33.093Z,100189
2018-08-09T14:46:01.943Z,100191
2018-08-09T14:48:30.778Z,100195
2018-08-09T14:50:59.618Z,100188
2018-08-09T14:53:28.464Z,100190
2018-08-09T14:55:57.306Z,100187
2018-08-09T14:58:26.155Z,100187
2018-08-09T15:00:54.986Z,100183
2018-08-09T15:03:23.836Z,100190
2018-08-09T15:05:52.675Z,100191
2018-08-09T15:08:21.508Z,100177
2018-08-09T15:10:50.352Z,100178
2018-08-09T15:13:19.194Z,100181
2018-08-09T15:15:48.793Z,100182
2018-08-09T15:18:17.631Z,100186
2018-08-09T15:20:46.468Z,100185
2018-08-09T15:23:15.315Z,100204
2018-08-09T15:25:44.155Z,100191
2018-08-09T15:28:13.019Z,100207
2018-08-09T15:30:41.857Z,100218
2018-08-09T15:33:10.709Z,100202
2018-08-09T15:35:39.559Z,100220
2018-08-09T15:38:08.486Z,100204
2018-08-09T15:40:38.000Z,100213
2018-08-09T15:43:06.836Z,100205
2018-08-09T15:45:35.685Z,100200
2018-08-09T15:48:05.303Z,100195
2018-08-09T15:50:34.155Z,100208
2018-08-09T15:53:02.997Z,100205
2018-08-09T15:55:31.851Z,100200
2018-08-09T15:58:00.715Z,100207
2018-08-09T16:00:29.557Z,100209
2018-08-09T16:02:58.437Z,100200
2018-08-09T16:05:27.282Z,100210
2018-08-09T16:07:56.115Z,100201
2018-08-09T16:10:24.983Z,100199
2018-08-09T16:12:53.818Z,100186
2018-08-09T16:15:22.655Z,100194
2018-08-09T16:17:51.514Z,100180
2018-08-09T16:20:20.355Z,100187
2018-08-09T16:22:49.192Z,100191
2018-08-09T16:25:18.050Z,100196
2018-08-09T16:27:46.953Z,100197
2018-08-09T16:30:15.803Z,100210
2018-08-09T16:32:44.660Z,100195
2018-08-09T16:35:13.515Z,100203
2018-08-09T16:37:42.443Z,100202
2018-08-09T16:40:11.283Z,100209
2018-08-09T16:42:40.860Z,100212
2018-08-09T16:45:09.711Z,100209
2018-08-09T16:47:38.786Z,100210
2018-08-09T16:50:07.402Z,100214
2018-08-09T16:52:36.246Z,100206
2018-08-09T16:55:05.082Z,100208
2018-08-09T16:57:33.935Z,100217
2018-08-09T17:00:03.529Z,100217
2018-08-09T17:02:32.376Z,100224
2018-08-09T17:05:01.225Z,100229
2018-08-09T17:07:30.069Z,100242
2018-08-09T17:09:58.925Z,100256
2018-08-09T17:12:27.821Z,100258
2018-08-09T17:14:56.667Z,100265
2018-08-09T17:17:25.521Z,100276
2018-08-09T17:19:54.371Z,100277
2018-08-09T17:22:23.953Z,100285
2018-08-09T17:24:52.799Z,100286
2018-08-09T17:27:21.649Z,100288
2018-08-09T17:29:50.498Z,100303
2018-08-09T17:32:19.343Z,100305
2018-08-09T17:34:48.194Z,100301
2018-08-09T17:37:17.036Z,100300
2018-08-09T17:39:45.874Z,100294
2018-08-09T17:42:14.714Z,100311
2018-08-09T17:44:43.586Z,100313
2018-08-09T17:47:12.429Z,100320
2018-08-09T17:49:41.289Z,100319
2018-08-09T17:52:10.161Z,100324
2018-08-09T17:54:38.976Z,100332
2018-08-09T17:57:07.822Z,100341
2018-08-09T17:59:36.673Z,100335
2018-08-09T18:02:05.521Z,100322
2018-08-09T18:04:35.096Z,100315
2018-08-09T18:07:04.949Z,100323
2018-08-09T18:09:33.811Z,100321
2018-08-09T18:12:02.655Z,100324
2018-08-09T18:14:31.510Z,100323
2018-08-09T18:17:00.361Z,100332
2018-08-09T18:19:29.211Z,100332
2018-08-09T18:21:58.832Z,100335
2018-08-09T18:24:27.685Z,100330
2018-08-09T18:26:56.527Z,100326
2018-08-09T18:29:25.366Z,100338
2018-08-09T18:31:54.236Z,100353
2018-08-09T18:34:23.070Z,100345
2018-08-09T18:36:51.949Z,100358
2018-08-09T18:39:20.789Z,100360
2018-08-09T18:41:49.633Z,100358
2018-08-09T18:44:18.727Z,100349
2018-08-09T18:46:47.514Z,100362
2018-08-09T18:49:16.366Z,100365
2018-08-09T18:51:45.210Z,100362
2018-08-09T18:54:14.053Z,100365
2018-08-09T18:56:42.916Z,100368
2018-08-09T18:59:11.811Z,100368
2018-08-09T19:01:40.605Z,100370
2018-08-09T19:04:09.443Z,100379
2018-08-09T19:06:38.309Z,100374
2018-08-09T19:09:07.152Z,100382
2018-08-09T19:11:36.010Z,100386
2018-08-09T19:14:04.844Z,100390
2018-08-09T19:16:33.685Z,100391
2018-08-09T19:19:02.548Z,100393
2018-08-09T19:21:31.388Z,100398
2018-08-09T19:24:00.235Z,100398
2018-08-09T19:26:29.090Z,100401
2018-08-09T19:28:57.941Z,100399
2018-08-09T19:31:26.786Z,100406
2018-08-09T19:33:55.629Z,100408
2018-08-09T19:36:24.501Z,100411
2018-08-09T19:38:53.359Z,100420
2018-08-09T19:41:22.181Z,100421
2018-08-09T19:43:51.039Z,100421
2018-08-09T19:46:19.897Z,100418
2018-08-09T19:48:48.836Z,100428
2018-08-09T19:51:17.684Z,100440
2018-08-09T19:53:46.536Z,100439
2018-08-09T19:56:15.381Z,100445
2018-08-09T19:58:44.241Z,100439
2018-08-09T20:01:13.083Z,100440
2018-08-09T20:03:41.935Z,100444
2018-08-09T20:06:10.804Z,100448
2018-08-09T20:08:39.647Z,100453
2018-08-09T20:11:08.503Z,100463
2018-08-09T20:13:37.355Z,100473
2018-08-09T20:16:06.246Z,100476
2018-08-09T20:18:35.094Z,100477
2018-08-09T20:21:03.952Z,100475
2018-08-09T20:23:32.800Z,100480
2018-08-09T20:26:01.644Z,100475
2018-08-09T20:28:30.504Z,100484
2018-08-09T20:30:59.358Z,100488
2018-08-09T20:33:28.225Z,100494
2018-08-09T20:35:57.058Z,100483
2018-08-09T20:38:25.910Z,100476
2018-08-09T20:40:54.755Z,100483
2018-08-09T20:43:23.599Z,100482
2018-08-09T20:45:52.463Z,100488
2018-08-09T20:48:21.341Z,100497
2018-08-09T20:50:50.190Z,100499
2018-08-09T20:53:19.794Z,100496
2018-08-09T20:55:49.423Z,100511
2018-08-09T20:58:18.287Z,100510
2018-08-09T21:00:47.897Z,100512
2018-08-09T21:03:17.514Z,100512
2018-08-09T21:05:46.366Z,100513
2018-08-09T21:08:15.284Z,100529
2018-08-09T21:10:44.112Z,100520
2018-08-09T21:13:12.982Z,100528
2018-08-09T21:15:41.886Z,100526
2018-08-09T21:18:11.710Z,100532
2018-08-09T21:20:40.545Z,100534
2018-08-09T21:23:09.405Z,100544
2018-08-09T21:25:38.259Z,100545
2018-08-09T21:28:07.211Z,100549
2018-08-09T21:30:36.021Z,100557
2018-08-09T21:33:05.613Z,100561
2018-08-09T21:35:34.473Z,100569
2018-08-09T21:38:03.314Z,100570
2018-08-09T21:40:32.165Z,100574
2018-08-09T21:43:01.001Z,100581
2018-08-09T21:45:29.842Z,100604
2018-08-09T21:47:58.679Z,100595
2018-08-09T21:50:27.515Z,100590
2018-08-09T21:52:56.357Z,100580
2018-08-09T21:55:25.936Z,100596
2018-08-09T21:57:54.788Z,100602
2018-08-09T22:00:23.642Z,100618
2018-08-09T22:02:52.533Z,100610
2018-08-09T22:05:22.117Z,100618
2018-08-09T22:07:51.702Z,100628
2018-08-09T22:10:25.982Z,100626
2018-08-09T22:12:54.868Z,100631
2018-08-09T22:15:29.339Z,100642
2018-08-09T22:18:03.648Z,100644
2018-08-09T22:20:34.412Z,100655
2018-08-09T22:23:03.242Z,100660
2018-08-09T22:25:32.086Z,100656
2018-08-09T22:28:00.923Z,100660
2018-08-09T22:30:30.513Z,100659
2018-08-09T22:32:59.376Z,100660
2018-08-09T22:35:28.206Z,100653
2018-08-09T22:37:57.066Z,100664
2018-08-09T22:40:25.910Z,100668
2018-08-09T22:42:54.751Z,100681
2018-08-09T22:45:23.597Z,100684
2018-08-09T22:47:52.442Z,100682
2018-08-09T22:50:22.034Z,100681
2018-08-09T22:52:50.881Z,100693
2018-08-09T22:55:19.717Z,100693
2018-08-09T22:57:48.552Z,100699
2018-08-09T23:00:17.433Z,100699
2018-08-09T23:02:46.317Z,100696
2018-08-09T23:05:15.210Z,100705
2018-08-09T23:07:44.019Z,100711
2018-08-09T23:10:12.875Z,100721
2018-08-09T23:12:42.457Z,100711
2018-08-09T23:15:11.298Z,100719
2018-08-09T23:17:40.146Z,100718
2018-08-09T23:20:09.726Z,100724
2018-08-09T23:22:38.573Z,100735
2018-08-09T23:25:07.432Z,100734
2018-08-09T23:27:36.280Z,100743
2018-08-09T23:30:05.115Z,100740
2018-08-09T23:32:34.706Z,100763
2018-08-09T23:35:03.579Z,100760
2018-08-09T23:37:32.427Z,100768
2018-08-09T23:40:01.278Z,100771
2018-08-09T23:42:30.154Z,100772
2018-08-09T23:44:59.002Z,100780
2018-08-09T23:47:27.849Z,100786
2018-08-09T23:49:57.290Z,100788
2018-08-09T23:52:26.134Z,100788
2018-08-09T23:54:54.985Z,100796
2018-08-09T23:57:23.823Z,100805
2018-08-09T23:59:52.672Z,100802
